sensor_id;sensor_type;location;lat;lon;timestamp;temperature;humidity
57833;DHT22;43667;53.036;6.740;2023-05-23T00:01:02;14.60;99.90
57833;DHT22;43667;53.036;6.740;2023-05-23T00:03:28;14.60;99.90
57833;DHT22;43667;53.036;6.740;2023-05-23T00:05:55;14.60;99.90
57833;DHT22;43667;53.036;6.740;2023-05-23T00:08:21;14.60;99.90
57833;DHT22;43667;53.036;6.740;2023-05-23T00:10:47;14.60;99.90
57833;DHT22;43667;53.036;6.740;2023-05-23T00:13:13;14.60;99.90
57833;DHT22;43667;53.036;6.740;2023-05-23T00:15:39;14.60;99.90
57833;DHT22;43667;53.036;6.740;2023-05-23T00:18:09;14.60;99.90
57833;DHT22;43667;53.036;6.740;2023-05-23T00:20:40;14.60;99.90
57833;DHT22;43667;53.036;6.740;2023-05-23T00:23:06;14.60;99.90
57833;DHT22;43667;53.036;6.740;2023-05-23T00:25:33;14.60;99.90
57833;DHT22;43667;53.036;6.740;2023-05-23T00:28:00;14.60;99.90
57833;DHT22;43667;53.036;6.740;2023-05-23T00:30:27;14.60;99.90
57833;DHT22;43667;53.036;6.740;2023-05-23T00:32:53;14.60;99.90
57833;DHT22;43667;53.036;6.740;2023-05-23T00:35:20;14.60;99.90
57833;DHT22;43667;53.036;6.740;2023-05-23T00:37:46;14.60;99.90
57833;DHT22;43667;53.036;6.740;2023-05-23T00:40:14;14.50;99.90
57833;DHT22;43667;53.036;6.740;2023-05-23T00:42:40;14.50;99.90
57833;DHT22;43667;53.036;6.740;2023-05-23T00:45:06;14.50;99.90
57833;DHT22;43667;53.036;6.740;2023-05-23T00:47:35;14.50;99.90
57833;DHT22;43667;53.036;6.740;2023-05-23T00:50:00;14.50;99.90
57833;DHT22;43667;53.036;6.740;2023-05-23T00:52:26;14.60;99.90
57833;DHT22;43667;53.036;6.740;2023-05-23T00:54:51;14.60;99.90
57833;DHT22;43667;53.036;6.740;2023-05-23T00:57:17;14.50;99.90
57833;DHT22;43667;53.036;6.740;2023-05-23T00:59:44;14.40;99.90
57833;DHT22;43667;53.036;6.740;2023-05-23T01:02:11;14.40;99.90
57833;DHT22;43667;53.036;6.740;2023-05-23T01:04:37;14.40;99.90
57833;DHT22;43667;53.036;6.740;2023-05-23T01:07:03;14.40;99.90
57833;DHT22;43667;53.036;6.740;2023-05-23T01:09:29;14.40;99.90
57833;DHT22;43667;53.036;6.740;2023-05-23T01:12:16;14.30;99.90
57833;DHT22;43667;53.036;6.740;2023-05-23T01:17:32;14.30;99.90
57833;DHT22;43667;53.036;6.740;2023-05-23T01:20:08;14.30;99.90
57833;DHT22;43667;53.036;6.740;2023-05-23T01:28:32;14.30;99.90
57833;DHT22;43667;53.036;6.740;2023-05-23T01:31:03;14.20;99.90
57833;DHT22;43667;53.036;6.740;2023-05-23T01:33:29;14.20;99.90
57833;DHT22;43667;53.036;6.740;2023-05-23T01:35:57;14.10;99.90
57833;DHT22;43667;53.036;6.740;2023-05-23T01:38:26;14.10;99.90
57833;DHT22;43667;53.036;6.740;2023-05-23T01:40:52;14.10;99.90
57833;DHT22;43667;53.036;6.740;2023-05-23T01:43:18;14.00;99.90
57833;DHT22;43667;53.036;6.740;2023-05-23T01:45:44;14.00;99.90
57833;DHT22;43667;53.036;6.740;2023-05-23T01:48:11;14.00;99.90
57833;DHT22;43667;53.036;6.740;2023-05-23T01:50:38;13.90;99.90
57833;DHT22;43667;53.036;6.740;2023-05-23T01:53:05;13.90;99.90
57833;DHT22;43667;53.036;6.740;2023-05-23T01:55:31;13.90;99.90
57833;DHT22;43667;53.036;6.740;2023-05-23T01:57:58;13.80;99.90
57833;DHT22;43667;53.036;6.740;2023-05-23T02:00:24;13.80;99.90
57833;DHT22;43667;53.036;6.740;2023-05-23T02:02:50;13.80;99.90
57833;DHT22;43667;53.036;6.740;2023-05-23T02:05:16;13.80;99.90
57833;DHT22;43667;53.036;6.740;2023-05-23T02:07:41;13.80;99.90
57833;DHT22;43667;53.036;6.740;2023-05-23T02:10:08;13.80;99.90
57833;DHT22;43667;53.036;6.740;2023-05-23T02:12:34;13.80;99.90
57833;DHT22;43667;53.036;6.740;2023-05-23T02:14:59;13.80;99.90
57833;DHT22;43667;53.036;6.740;2023-05-23T02:17:25;13.80;99.90
57833;DHT22;43667;53.036;6.740;2023-05-23T02:19:51;13.70;99.90
57833;DHT22;43667;53.036;6.740;2023-05-23T02:22:16;13.70;99.90
57833;DHT22;43667;53.036;6.740;2023-05-23T02:24:42;13.60;99.90
57833;DHT22;43667;53.036;6.740;2023-05-23T02:27:07;13.60;99.90
57833;DHT22;43667;53.036;6.740;2023-05-23T02:29:33;13.60;99.90
57833;DHT22;43667;53.036;6.740;2023-05-23T02:31:59;13.50;99.90
57833;DHT22;43667;53.036;6.740;2023-05-23T02:34:24;13.50;99.90
57833;DHT22;43667;53.036;6.740;2023-05-23T02:36:50;13.50;99.90
57833;DHT22;43667;53.036;6.740;2023-05-23T02:39:16;13.50;99.90
57833;DHT22;43667;53.036;6.740;2023-05-23T02:41:42;13.40;99.90
57833;DHT22;43667;53.036;6.740;2023-05-23T02:44:07;13.40;99.90
57833;DHT22;43667;53.036;6.740;2023-05-23T02:46:33;13.30;99.90
57833;DHT22;43667;53.036;6.740;2023-05-23T02:48:59;13.30;99.90
57833;DHT22;43667;53.036;6.740;2023-05-23T02:51:24;13.30;99.90
57833;DHT22;43667;53.036;6.740;2023-05-23T02:53:50;13.30;99.90
57833;DHT22;43667;53.036;6.740;2023-05-23T02:56:16;13.30;99.90
57833;DHT22;43667;53.036;6.740;2023-05-23T02:58:41;13.30;99.90
57833;DHT22;43667;53.036;6.740;2023-05-23T03:01:07;13.20;99.90
57833;DHT22;43667;53.036;6.740;2023-05-23T03:03:33;13.20;99.90
57833;DHT22;43667;53.036;6.740;2023-05-23T03:06:00;13.20;99.90
57833;DHT22;43667;53.036;6.740;2023-05-23T03:08:26;13.10;99.90
57833;DHT22;43667;53.036;6.740;2023-05-23T03:10:52;13.10;99.90
57833;DHT22;43667;53.036;6.740;2023-05-23T03:13:17;13.10;99.90
57833;DHT22;43667;53.036;6.740;2023-05-23T03:15:43;13.10;99.90
57833;DHT22;43667;53.036;6.740;2023-05-23T03:18:09;13.00;99.90
57833;DHT22;43667;53.036;6.740;2023-05-23T03:20:35;13.00;99.90
57833;DHT22;43667;53.036;6.740;2023-05-23T03:23:01;12.90;99.90
57833;DHT22;43667;53.036;6.740;2023-05-23T03:25:26;12.90;99.90
57833;DHT22;43667;53.036;6.740;2023-05-23T03:27:52;12.90;99.90
57833;DHT22;43667;53.036;6.740;2023-05-23T03:30:18;12.90;99.90
57833;DHT22;43667;53.036;6.740;2023-05-23T03:32:43;12.90;99.90
57833;DHT22;43667;53.036;6.740;2023-05-23T03:35:09;12.80;99.90
57833;DHT22;43667;53.036;6.740;2023-05-23T03:37:35;12.80;99.90
57833;DHT22;43667;53.036;6.740;2023-05-23T03:40:01;12.80;99.90
57833;DHT22;43667;53.036;6.740;2023-05-23T03:42:27;12.80;99.90
57833;DHT22;43667;53.036;6.740;2023-05-23T03:44:53;12.70;99.90
57833;DHT22;43667;53.036;6.740;2023-05-23T03:47:18;12.70;99.90
57833;DHT22;43667;53.036;6.740;2023-05-23T03:49:44;12.60;99.90
57833;DHT22;43667;53.036;6.740;2023-05-23T03:52:10;12.70;99.90
57833;DHT22;43667;53.036;6.740;2023-05-23T03:54:35;12.60;99.90
57833;DHT22;43667;53.036;6.740;2023-05-23T03:57:01;12.60;99.90
57833;DHT22;43667;53.036;6.740;2023-05-23T03:59:27;12.60;99.90
57833;DHT22;43667;53.036;6.740;2023-05-23T04:01:53;12.60;99.90
57833;DHT22;43667;53.036;6.740;2023-05-23T04:04:19;12.60;99.90
57833;DHT22;43667;53.036;6.740;2023-05-23T04:06:46;12.60;99.90
57833;DHT22;43667;53.036;6.740;2023-05-23T04:09:12;12.60;99.90
57833;DHT22;43667;53.036;6.740;2023-05-23T04:11:38;12.60;99.90
57833;DHT22;43667;53.036;6.740;2023-05-23T04:14:04;12.60;99.90
57833;DHT22;43667;53.036;6.740;2023-05-23T04:16:29;12.50;99.90
57833;DHT22;43667;53.036;6.740;2023-05-23T04:18:57;12.60;99.90
57833;DHT22;43667;53.036;6.740;2023-05-23T04:21:23;12.50;99.90
57833;DHT22;43667;53.036;6.740;2023-05-23T04:23:49;12.50;99.90
57833;DHT22;43667;53.036;6.740;2023-05-23T04:26:15;12.50;99.90
57833;DHT22;43667;53.036;6.740;2023-05-23T04:28:41;12.50;99.90
57833;DHT22;43667;53.036;6.740;2023-05-23T04:31:10;12.50;99.90
57833;DHT22;43667;53.036;6.740;2023-05-23T04:33:37;12.40;99.90
57833;DHT22;43667;53.036;6.740;2023-05-23T04:36:03;12.40;99.90
57833;DHT22;43667;53.036;6.740;2023-05-23T04:38:28;12.40;99.90
57833;DHT22;43667;53.036;6.740;2023-05-23T04:40:54;12.50;99.90
57833;DHT22;43667;53.036;6.740;2023-05-23T04:43:20;12.40;99.90
57833;DHT22;43667;53.036;6.740;2023-05-23T04:45:46;12.40;99.90
57833;DHT22;43667;53.036;6.740;2023-05-23T04:48:14;12.40;99.90
57833;DHT22;43667;53.036;6.740;2023-05-23T04:50:42;12.40;99.90
57833;DHT22;43667;53.036;6.740;2023-05-23T04:53:08;12.40;99.90
57833;DHT22;43667;53.036;6.740;2023-05-23T04:55:33;12.40;99.90
57833;DHT22;43667;53.036;6.740;2023-05-23T04:57:59;12.30;99.90
57833;DHT22;43667;53.036;6.740;2023-05-23T05:00:25;12.30;99.90
57833;DHT22;43667;53.036;6.740;2023-05-23T05:02:51;12.30;99.90
57833;DHT22;43667;53.036;6.740;2023-05-23T05:05:17;12.30;99.90
57833;DHT22;43667;53.036;6.740;2023-05-23T05:07:42;12.30;99.90
57833;DHT22;43667;53.036;6.740;2023-05-23T05:10:09;12.20;99.90
57833;DHT22;43667;53.036;6.740;2023-05-23T05:12:45;12.30;99.90
57833;DHT22;43667;53.036;6.740;2023-05-23T05:15:12;12.30;99.90
57833;DHT22;43667;53.036;6.740;2023-05-23T05:17:38;12.20;99.90
57833;DHT22;43667;53.036;6.740;2023-05-23T05:20:04;12.20;99.90
57833;DHT22;43667;53.036;6.740;2023-05-23T05:22:34;12.10;99.90
57833;DHT22;43667;53.036;6.740;2023-05-23T05:25:00;12.10;99.90
57833;DHT22;43667;53.036;6.740;2023-05-23T05:27:27;12.10;99.90
57833;DHT22;43667;53.036;6.740;2023-05-23T05:29:53;12.10;99.90
57833;DHT22;43667;53.036;6.740;2023-05-23T05:32:22;12.10;99.90
57833;DHT22;43667;53.036;6.740;2023-05-23T05:34:48;12.10;99.90
57833;DHT22;43667;53.036;6.740;2023-05-23T05:37:15;12.10;99.90
57833;DHT22;43667;53.036;6.740;2023-05-23T05:39:40;12.00;99.90
57833;DHT22;43667;53.036;6.740;2023-05-23T05:42:06;12.00;99.90
57833;DHT22;43667;53.036;6.740;2023-05-23T05:44:32;11.90;99.90
57833;DHT22;43667;53.036;6.740;2023-05-23T05:46:57;11.90;99.90
57833;DHT22;43667;53.036;6.740;2023-05-23T05:49:23;11.90;99.90
57833;DHT22;43667;53.036;6.740;2023-05-23T05:51:49;11.80;99.90
57833;DHT22;43667;53.036;6.740;2023-05-23T05:54:14;11.80;99.90
57833;DHT22;43667;53.036;6.740;2023-05-23T05:56:40;11.80;99.90
57833;DHT22;43667;53.036;6.740;2023-05-23T05:59:06;11.80;99.90
57833;DHT22;43667;53.036;6.740;2023-05-23T06:01:32;11.80;99.90
57833;DHT22;43667;53.036;6.740;2023-05-23T06:04:00;11.70;99.90
57833;DHT22;43667;53.036;6.740;2023-05-23T06:06:26;11.70;99.90
57833;DHT22;43667;53.036;6.740;2023-05-23T06:08:51;11.70;99.90
57833;DHT22;43667;53.036;6.740;2023-05-23T06:11:17;11.70;99.90
57833;DHT22;43667;53.036;6.740;2023-05-23T06:13:43;11.70;99.90
57833;DHT22;43667;53.036;6.740;2023-05-23T06:16:09;11.70;99.90
57833;DHT22;43667;53.036;6.740;2023-05-23T06:18:34;11.70;99.90
57833;DHT22;43667;53.036;6.740;2023-05-23T06:21:00;11.70;99.90
57833;DHT22;43667;53.036;6.740;2023-05-23T06:23:25;11.70;99.90
57833;DHT22;43667;53.036;6.740;2023-05-23T06:25:51;11.70;99.90
57833;DHT22;43667;53.036;6.740;2023-05-23T06:28:17;11.70;99.90
57833;DHT22;43667;53.036;6.740;2023-05-23T06:30:42;11.70;99.90
57833;DHT22;43667;53.036;6.740;2023-05-23T06:33:08;11.70;99.90
57833;DHT22;43667;53.036;6.740;2023-05-23T06:35:34;11.70;99.90
57833;DHT22;43667;53.036;6.740;2023-05-23T06:37:59;11.70;99.90
57833;DHT22;43667;53.036;6.740;2023-05-23T06:40:25;11.70;99.90
57833;DHT22;43667;53.036;6.740;2023-05-23T06:42:51;11.70;99.90
57833;DHT22;43667;53.036;6.740;2023-05-23T06:45:16;11.80;99.90
57833;DHT22;43667;53.036;6.740;2023-05-23T06:47:42;11.80;99.90
57833;DHT22;43667;53.036;6.740;2023-05-23T06:50:12;11.70;99.90
57833;DHT22;43667;53.036;6.740;2023-05-23T06:52:38;11.70;99.90
57833;DHT22;43667;53.036;6.740;2023-05-23T06:55:04;11.70;99.90
57833;DHT22;43667;53.036;6.740;2023-05-23T06:57:30;11.60;99.90
57833;DHT22;43667;53.036;6.740;2023-05-23T06:59:55;11.60;99.90
57833;DHT22;43667;53.036;6.740;2023-05-23T07:02:22;11.60;99.90
57833;DHT22;43667;53.036;6.740;2023-05-23T07:04:47;11.60;99.90
57833;DHT22;43667;53.036;6.740;2023-05-23T07:07:13;11.70;99.90
57833;DHT22;43667;53.036;6.740;2023-05-23T07:09:38;11.70;99.90
57833;DHT22;43667;53.036;6.740;2023-05-23T07:12:05;11.80;99.90
57833;DHT22;43667;53.036;6.740;2023-05-23T07:14:31;11.90;99.90
57833;DHT22;43667;53.036;6.740;2023-05-23T07:16:56;12.00;99.90
57833;DHT22;43667;53.036;6.740;2023-05-23T07:19:22;12.10;99.90
57833;DHT22;43667;53.036;6.740;2023-05-23T07:21:47;12.20;99.90
57833;DHT22;43667;53.036;6.740;2023-05-23T07:24:13;12.20;99.90
57833;DHT22;43667;53.036;6.740;2023-05-23T07:26:38;12.20;99.90
57833;DHT22;43667;53.036;6.740;2023-05-23T07:29:04;12.30;99.90
57833;DHT22;43667;53.036;6.740;2023-05-23T07:31:30;12.30;99.90
57833;DHT22;43667;53.036;6.740;2023-05-23T07:33:55;12.30;99.90
57833;DHT22;43667;53.036;6.740;2023-05-23T07:36:21;12.30;99.90
57833;DHT22;43667;53.036;6.740;2023-05-23T07:38:47;12.30;99.90
57833;DHT22;43667;53.036;6.740;2023-05-23T07:41:13;12.30;99.90
57833;DHT22;43667;53.036;6.740;2023-05-23T07:43:39;12.30;99.90
57833;DHT22;43667;53.036;6.740;2023-05-23T07:46:05;12.30;99.90
57833;DHT22;43667;53.036;6.740;2023-05-23T07:48:30;12.30;99.90
57833;DHT22;43667;53.036;6.740;2023-05-23T07:50:56;12.30;99.90
57833;DHT22;43667;53.036;6.740;2023-05-23T07:53:22;12.30;99.90
57833;DHT22;43667;53.036;6.740;2023-05-23T07:55:47;12.30;99.90
57833;DHT22;43667;53.036;6.740;2023-05-23T07:58:13;12.30;99.90
57833;DHT22;43667;53.036;6.740;2023-05-23T08:00:38;12.40;99.90
57833;DHT22;43667;53.036;6.740;2023-05-23T08:03:06;12.40;99.90
57833;DHT22;43667;53.036;6.740;2023-05-23T08:05:32;12.50;99.90
57833;DHT22;43667;53.036;6.740;2023-05-23T08:07:57;12.50;99.90
57833;DHT22;43667;53.036;6.740;2023-05-23T08:10:23;12.50;99.90
57833;DHT22;43667;53.036;6.740;2023-05-23T08:12:50;12.50;99.90
57833;DHT22;43667;53.036;6.740;2023-05-23T08:15:16;12.60;99.90
57833;DHT22;43667;53.036;6.740;2023-05-23T08:17:41;12.70;99.90
57833;DHT22;43667;53.036;6.740;2023-05-23T08:20:07;12.70;99.90
57833;DHT22;43667;53.036;6.740;2023-05-23T08:22:34;12.90;99.90
57833;DHT22;43667;53.036;6.740;2023-05-23T08:25:00;12.90;99.90
57833;DHT22;43667;53.036;6.740;2023-05-23T08:27:27;12.90;99.90
57833;DHT22;43667;53.036;6.740;2023-05-23T08:29:54;12.90;99.90
57833;DHT22;43667;53.036;6.740;2023-05-23T08:32:20;12.90;99.90
57833;DHT22;43667;53.036;6.740;2023-05-23T08:34:45;13.00;99.90
57833;DHT22;43667;53.036;6.740;2023-05-23T08:37:11;13.10;99.90
57833;DHT22;43667;53.036;6.740;2023-05-23T08:39:36;13.30;99.90
57833;DHT22;43667;53.036;6.740;2023-05-23T08:42:02;13.40;99.90
57833;DHT22;43667;53.036;6.740;2023-05-23T08:44:28;13.60;99.90
57833;DHT22;43667;53.036;6.740;2023-05-23T08:46:54;13.80;99.90
57833;DHT22;43667;53.036;6.740;2023-05-23T08:49:21;14.00;99.90
57833;DHT22;43667;53.036;6.740;2023-05-23T08:51:51;14.10;99.90
57833;DHT22;43667;53.036;6.740;2023-05-23T08:54:18;14.20;99.90
57833;DHT22;43667;53.036;6.740;2023-05-23T08:56:46;14.30;99.90
57833;DHT22;43667;53.036;6.740;2023-05-23T08:59:13;14.30;99.90
57833;DHT22;43667;53.036;6.740;2023-05-23T09:01:40;14.20;99.90
57833;DHT22;43667;53.036;6.740;2023-05-23T09:04:07;14.30;99.90
57833;DHT22;43667;53.036;6.740;2023-05-23T09:06:34;14.50;99.90
57833;DHT22;43667;53.036;6.740;2023-05-23T09:08:59;14.60;99.90
57833;DHT22;43667;53.036;6.740;2023-05-23T09:11:25;14.60;99.90
57833;DHT22;43667;53.036;6.740;2023-05-23T09:13:51;14.50;99.90
57833;DHT22;43667;53.036;6.740;2023-05-23T09:16:18;14.40;99.90
57833;DHT22;43667;53.036;6.740;2023-05-23T09:18:44;14.40;99.90
57833;DHT22;43667;53.036;6.740;2023-05-23T09:21:11;14.50;99.90
57833;DHT22;43667;53.036;6.740;2023-05-23T09:23:38;14.50;99.90
57833;DHT22;43667;53.036;6.740;2023-05-23T09:26:14;14.60;99.90
57833;DHT22;43667;53.036;6.740;2023-05-23T09:28:42;14.80;99.90
57833;DHT22;43667;53.036;6.740;2023-05-23T09:31:08;15.00;99.90
57833;DHT22;43667;53.036;6.740;2023-05-23T09:33:43;15.10;99.90
57833;DHT22;43667;53.036;6.740;2023-05-23T09:36:12;15.00;99.90
57833;DHT22;43667;53.036;6.740;2023-05-23T09:38:40;14.90;99.90
57833;DHT22;43667;53.036;6.740;2023-05-23T09:41:06;14.90;99.90
57833;DHT22;43667;53.036;6.740;2023-05-23T09:43:32;14.90;99.90
57833;DHT22;43667;53.036;6.740;2023-05-23T09:46:09;14.80;99.90
57833;DHT22;43667;53.036;6.740;2023-05-23T09:48:35;14.80;99.90
57833;DHT22;43667;53.036;6.740;2023-05-23T09:51:05;14.70;99.90
57833;DHT22;43667;53.036;6.740;2023-05-23T09:53:32;14.70;99.90
57833;DHT22;43667;53.036;6.740;2023-05-23T09:55:58;14.80;99.90
57833;DHT22;43667;53.036;6.740;2023-05-23T09:58:27;14.90;99.90
57833;DHT22;43667;53.036;6.740;2023-05-23T10:00:55;15.00;99.90
57833;DHT22;43667;53.036;6.740;2023-05-23T10:03:34;15.10;99.90
57833;DHT22;43667;53.036;6.740;2023-05-23T10:06:05;15.10;99.90
57833;DHT22;43667;53.036;6.740;2023-05-23T10:08:38;15.20;99.90
57833;DHT22;43667;53.036;6.740;2023-05-23T10:13:48;15.70;99.90
57833;DHT22;43667;53.036;6.740;2023-05-23T10:16:18;15.70;99.90
57833;DHT22;43667;53.036;6.740;2023-05-23T10:18:51;15.70;99.90
57833;DHT22;43667;53.036;6.740;2023-05-23T10:21:24;15.80;99.90
57833;DHT22;43667;53.036;6.740;2023-05-23T10:23:53;15.90;99.90
57833;DHT22;43667;53.036;6.740;2023-05-23T10:26:19;15.80;99.90
57833;DHT22;43667;53.036;6.740;2023-05-23T10:28:46;15.80;99.90
57833;DHT22;43667;53.036;6.740;2023-05-23T10:31:14;15.80;99.90
57833;DHT22;43667;53.036;6.740;2023-05-23T10:33:44;15.90;99.90
57833;DHT22;43667;53.036;6.740;2023-05-23T10:36:19;15.70;99.90
57833;DHT22;43667;53.036;6.740;2023-05-23T10:39:06;15.60;99.60
57833;DHT22;43667;53.036;6.740;2023-05-23T10:44:22;15.90;98.90
57833;DHT22;43667;53.036;6.740;2023-05-23T10:46:59;15.80;99.70
57833;DHT22;43667;53.036;6.740;2023-05-23T10:49:45;15.70;99.90
57833;DHT22;43667;53.036;6.740;2023-05-23T10:52:23;15.80;99.90
57833;DHT22;43667;53.036;6.740;2023-05-23T10:54:52;15.90;99.90
57833;DHT22;43667;53.036;6.740;2023-05-23T10:57:20;15.80;99.90
57833;DHT22;43667;53.036;6.740;2023-05-23T10:59:50;15.80;99.90
57833;DHT22;43667;53.036;6.740;2023-05-23T11:02:19;15.90;99.80
57833;DHT22;43667;53.036;6.740;2023-05-23T11:05:09;15.90;97.90
57833;DHT22;43667;53.036;6.740;2023-05-23T11:07:34;16.00;93.30
57833;DHT22;43667;53.036;6.740;2023-05-23T11:10:09;16.40;97.70
57833;DHT22;43667;53.036;6.740;2023-05-23T11:12:40;16.60;92.80
57833;DHT22;43667;53.036;6.740;2023-05-23T11:15:19;16.60;93.70
57833;DHT22;43667;53.036;6.740;2023-05-23T11:17:53;16.60;90.70
57833;DHT22;43667;53.036;6.740;2023-05-23T11:20:26;16.60;92.10
57833;DHT22;43667;53.036;6.740;2023-05-23T11:22:54;17.00;92.60
57833;DHT22;43667;53.036;6.740;2023-05-23T11:25:42;17.10;88.90
57833;DHT22;43667;53.036;6.740;2023-05-23T11:28:09;17.30;89.00
57833;DHT22;43667;53.036;6.740;2023-05-23T11:30:36;17.20;88.90
57833;DHT22;43667;53.036;6.740;2023-05-23T11:33:09;17.00;89.40
57833;DHT22;43667;53.036;6.740;2023-05-23T11:35:48;16.90;90.00
57833;DHT22;43667;53.036;6.740;2023-05-23T11:38:17;16.90;91.00
57833;DHT22;43667;53.036;6.740;2023-05-23T11:40:44;17.10;86.40
57833;DHT22;43667;53.036;6.740;2023-05-23T11:43:14;17.30;83.60
57833;DHT22;43667;53.036;6.740;2023-05-23T11:45:41;17.50;79.90
57833;DHT22;43667;53.036;6.740;2023-05-23T11:48:15;17.40;83.20
57833;DHT22;43667;53.036;6.740;2023-05-23T11:50:49;17.10;87.50
57833;DHT22;43667;53.036;6.740;2023-05-23T11:53:15;16.80;90.10
57833;DHT22;43667;53.036;6.740;2023-05-23T11:55:50;16.70;91.80
57833;DHT22;43667;53.036;6.740;2023-05-23T11:58:18;16.60;90.40
57833;DHT22;43667;53.036;6.740;2023-05-23T12:00:44;16.40;91.40
57833;DHT22;43667;53.036;6.740;2023-05-23T12:03:10;16.30;91.40
57833;DHT22;43667;53.036;6.740;2023-05-23T12:05:36;16.20;92.70
57833;DHT22;43667;53.036;6.740;2023-05-23T12:08:02;16.40;92.40
57833;DHT22;43667;53.036;6.740;2023-05-23T12:10:28;16.80;91.50
57833;DHT22;43667;53.036;6.740;2023-05-23T12:12:54;17.20;87.30
57833;DHT22;43667;53.036;6.740;2023-05-23T12:15:25;17.50;83.70
57833;DHT22;43667;53.036;6.740;2023-05-23T12:17:53;17.40;82.50
57833;DHT22;43667;53.036;6.740;2023-05-23T12:20:19;17.60;81.60
57833;DHT22;43667;53.036;6.740;2023-05-23T12:22:45;17.70;78.30
57833;DHT22;43667;53.036;6.740;2023-05-23T12:25:11;17.60;75.70
57833;DHT22;43667;53.036;6.740;2023-05-23T12:27:39;17.30;78.50
57833;DHT22;43667;53.036;6.740;2023-05-23T12:30:15;17.20;79.10
57833;DHT22;43667;53.036;6.740;2023-05-23T12:32:43;17.20;76.10
57833;DHT22;43667;53.036;6.740;2023-05-23T12:35:10;17.20;75.60
57833;DHT22;43667;53.036;6.740;2023-05-23T12:37:39;17.00;75.60
57833;DHT22;43667;53.036;6.740;2023-05-23T12:40:16;16.80;78.70
57833;DHT22;43667;53.036;6.740;2023-05-23T12:43:00;16.70;76.90
57833;DHT22;43667;53.036;6.740;2023-05-23T12:45:33;16.70;74.10
57833;DHT22;43667;53.036;6.740;2023-05-23T12:47:59;16.80;76.20
57833;DHT22;43667;53.036;6.740;2023-05-23T12:50:26;16.90;79.10
57833;DHT22;43667;53.036;6.740;2023-05-23T12:52:51;16.90;80.20
57833;DHT22;43667;53.036;6.740;2023-05-23T12:55:20;16.80;80.80
57833;DHT22;43667;53.036;6.740;2023-05-23T12:57:45;16.70;76.50
57833;DHT22;43667;53.036;6.740;2023-05-23T13:00:11;16.60;75.90
57833;DHT22;43667;53.036;6.740;2023-05-23T13:02:37;16.60;74.20
57833;DHT22;43667;53.036;6.740;2023-05-23T13:05:04;16.50;75.70
57833;DHT22;43667;53.036;6.740;2023-05-23T13:07:30;16.60;79.40
57833;DHT22;43667;53.036;6.740;2023-05-23T13:09:56;16.40;83.10
57833;DHT22;43667;53.036;6.740;2023-05-23T13:12:23;16.20;89.50
57833;DHT22;43667;53.036;6.740;2023-05-23T13:14:49;16.00;91.50
57833;DHT22;43667;53.036;6.740;2023-05-23T13:17:15;15.90;91.20
57833;DHT22;43667;53.036;6.740;2023-05-23T13:19:41;16.10;91.10
57833;DHT22;43667;53.036;6.740;2023-05-23T13:22:07;16.30;85.70
57833;DHT22;43667;53.036;6.740;2023-05-23T13:24:36;16.40;82.50
57833;DHT22;43667;53.036;6.740;2023-05-23T13:27:09;16.50;78.70
57833;DHT22;43667;53.036;6.740;2023-05-23T13:29:35;16.60;76.60
57833;DHT22;43667;53.036;6.740;2023-05-23T13:32:01;16.40;75.80
57833;DHT22;43667;53.036;6.740;2023-05-23T13:34:27;16.40;79.30
57833;DHT22;43667;53.036;6.740;2023-05-23T13:36:53;16.50;79.20
57833;DHT22;43667;53.036;6.740;2023-05-23T13:39:19;16.70;76.00
57833;DHT22;43667;53.036;6.740;2023-05-23T13:41:47;16.80;73.50
57833;DHT22;43667;53.036;6.740;2023-05-23T13:44:13;16.70;72.80
57833;DHT22;43667;53.036;6.740;2023-05-23T13:46:38;16.60;73.40
57833;DHT22;43667;53.036;6.740;2023-05-23T13:49:04;16.60;72.10
57833;DHT22;43667;53.036;6.740;2023-05-23T13:51:30;16.60;71.10
57833;DHT22;43667;53.036;6.740;2023-05-23T13:53:57;16.70;71.50
57833;DHT22;43667;53.036;6.740;2023-05-23T13:56:22;16.90;69.80
57833;DHT22;43667;53.036;6.740;2023-05-23T13:58:48;16.90;65.30
57833;DHT22;43667;53.036;6.740;2023-05-23T14:01:14;16.90;64.20
57833;DHT22;43667;53.036;6.740;2023-05-23T14:03:40;17.00;64.30
57833;DHT22;43667;53.036;6.740;2023-05-23T14:06:05;16.70;64.70
57833;DHT22;43667;53.036;6.740;2023-05-23T14:08:31;16.50;65.00
57833;DHT22;43667;53.036;6.740;2023-05-23T14:10:57;16.50;67.50
57833;DHT22;43667;53.036;6.740;2023-05-23T14:13:23;16.60;67.10
57833;DHT22;43667;53.036;6.740;2023-05-23T14:15:49;16.80;66.00
57833;DHT22;43667;53.036;6.740;2023-05-23T14:18:15;17.00;65.40
57833;DHT22;43667;53.036;6.740;2023-05-23T14:20:41;17.00;65.10
57833;DHT22;43667;53.036;6.740;2023-05-23T14:23:06;16.90;69.20
57833;DHT22;43667;53.036;6.740;2023-05-23T14:25:32;16.70;71.90
57833;DHT22;43667;53.036;6.740;2023-05-23T14:27:58;16.40;72.50
57833;DHT22;43667;53.036;6.740;2023-05-23T14:30:23;16.10;76.00
57833;DHT22;43667;53.036;6.740;2023-05-23T14:32:49;16.00;76.50
57833;DHT22;43667;53.036;6.740;2023-05-23T14:35:14;16.10;72.40
57833;DHT22;43667;53.036;6.740;2023-05-23T14:37:40;16.40;69.10
57833;DHT22;43667;53.036;6.740;2023-05-23T14:40:06;16.60;66.90
57833;DHT22;43667;53.036;6.740;2023-05-23T14:42:34;16.60;65.00
57833;DHT22;43667;53.036;6.740;2023-05-23T14:45:00;16.50;62.90
57833;DHT22;43667;53.036;6.740;2023-05-23T14:47:25;16.50;63.60
57833;DHT22;43667;53.036;6.740;2023-05-23T14:49:51;16.50;63.60
57833;DHT22;43667;53.036;6.740;2023-05-23T14:52:17;16.50;63.30
57833;DHT22;43667;53.036;6.740;2023-05-23T14:54:42;16.50;63.70
57833;DHT22;43667;53.036;6.740;2023-05-23T14:57:08;16.80;62.40
57833;DHT22;43667;53.036;6.740;2023-05-23T14:59:35;17.10;59.90
57833;DHT22;43667;53.036;6.740;2023-05-23T15:02:02;17.30;58.80
57833;DHT22;43667;53.036;6.740;2023-05-23T15:04:28;17.20;58.90
57833;DHT22;43667;53.036;6.740;2023-05-23T15:06:53;17.10;59.10
57833;DHT22;43667;53.036;6.740;2023-05-23T15:09:19;17.20;59.70
57833;DHT22;43667;53.036;6.740;2023-05-23T15:11:45;17.30;59.80
57833;DHT22;43667;53.036;6.740;2023-05-23T15:14:13;17.50;60.20
57833;DHT22;43667;53.036;6.740;2023-05-23T15:16:39;17.40;60.10
57833;DHT22;43667;53.036;6.740;2023-05-23T15:19:08;17.20;59.50
57833;DHT22;43667;53.036;6.740;2023-05-23T15:21:34;17.20;59.40
57833;DHT22;43667;53.036;6.740;2023-05-23T15:24:00;17.60;58.80
57833;DHT22;43667;53.036;6.740;2023-05-23T15:26:26;17.80;57.80
57833;DHT22;43667;53.036;6.740;2023-05-23T15:28:52;17.70;57.30
57833;DHT22;43667;53.036;6.740;2023-05-23T15:31:18;17.50;57.40
57833;DHT22;43667;53.036;6.740;2023-05-23T15:33:43;17.20;57.00
57833;DHT22;43667;53.036;6.740;2023-05-23T15:36:09;17.00;57.30
57833;DHT22;43667;53.036;6.740;2023-05-23T15:38:37;17.10;57.10
57833;DHT22;43667;53.036;6.740;2023-05-23T15:41:03;17.20;57.50
57833;DHT22;43667;53.036;6.740;2023-05-23T15:43:29;17.10;57.80